sensor_id;sensor_type;location;lat;lon;timestamp;P1;durP1;ratioP1;P2;durP2;ratioP2
37907;SDS011;23740;51.550;6.846;2023-07-24T00:02:06;3.08;;;1.75;;
37907;SDS011;23740;51.550;6.846;2023-07-24T00:04:34;2.75;;;1.70;;
37907;SDS011;23740;51.550;6.846;2023-07-24T00:07:02;2.92;;;1.67;;
37907;SDS011;23740;51.550;6.846;2023-07-24T00:09:29;3.17;;;2.08;;
37907;SDS011;23740;51.550;6.846;2023-07-24T00:11:58;3.00;;;1.60;;
37907;SDS011;23740;51.550;6.846;2023-07-24T00:14:26;2.58;;;2.00;;
37907;SDS011;23740;51.550;6.846;2023-07-24T00:16:53;2.58;;;1.85;;
37907;SDS011;23740;51.550;6.846;2023-07-24T00:19:21;4.30;;;2.17;;
37907;SDS011;23740;51.550;6.846;2023-07-24T00:21:49;2.40;;;1.85;;
37907;SDS011;23740;51.550;6.846;2023-07-24T00:24:17;3.17;;;1.75;;
37907;SDS011;23740;51.550;6.846;2023-07-24T00:26:44;3.10;;;2.25;;
37907;SDS011;23740;51.550;6.846;2023-07-24T00:29:14;3.50;;;2.15;;
37907;SDS011;23740;51.550;6.846;2023-07-24T00:31:44;3.72;;;2.20;;
37907;SDS011;23740;51.550;6.846;2023-07-24T00:34:11;4.15;;;2.42;;
37907;SDS011;23740;51.550;6.846;2023-07-24T00:36:39;4.13;;;2.10;;
37907;SDS011;23740;51.550;6.846;2023-07-24T00:39:07;2.20;;;1.88;;
37907;SDS011;23740;51.550;6.846;2023-07-24T00:41:34;4.00;;;2.35;;
37907;SDS011;23740;51.550;6.846;2023-07-24T00:44:02;2.45;;;2.00;;
37907;SDS011;23740;51.550;6.846;2023-07-24T00:46:30;4.07;;;2.33;;
37907;SDS011;23740;51.550;6.846;2023-07-24T00:49:01;4.30;;;2.78;;
37907;SDS011;23740;51.550;6.846;2023-07-24T00:51:31;3.40;;;2.17;;
37907;SDS011;23740;51.550;6.846;2023-07-24T00:54:01;3.88;;;2.25;;
37907;SDS011;23740;51.550;6.846;2023-07-24T00:56:29;4.38;;;1.75;;
37907;SDS011;23740;51.550;6.846;2023-07-24T00:59:00;5.95;;;3.05;;
37907;SDS011;23740;51.550;6.846;2023-07-24T01:01:28;3.72;;;2.33;;
37907;SDS011;23740;51.550;6.846;2023-07-24T01:03:56;3.72;;;2.35;;
37907;SDS011;23740;51.550;6.846;2023-07-24T01:06:26;3.58;;;2.40;;
37907;SDS011;23740;51.550;6.846;2023-07-24T01:08:54;4.20;;;2.63;;
37907;SDS011;23740;51.550;6.846;2023-07-24T01:11:23;5.82;;;2.40;;
37907;SDS011;23740;51.550;6.846;2023-07-24T01:13:55;3.28;;;1.80;;
37907;SDS011;23740;51.550;6.846;2023-07-24T01:16:26;2.80;;;2.17;;
37907;SDS011;23740;51.550;6.846;2023-07-24T01:21:32;4.15;;;2.08;;
37907;SDS011;23740;51.550;6.846;2023-07-24T01:24:03;4.00;;;1.98;;
37907;SDS011;23740;51.550;6.846;2023-07-24T01:26:38;4.70;;;1.92;;
37907;SDS011;23740;51.550;6.846;2023-07-24T01:29:09;4.45;;;2.15;;
37907;SDS011;23740;51.550;6.846;2023-07-24T01:31:37;2.42;;;2.20;;
37907;SDS011;23740;51.550;6.846;2023-07-24T01:34:04;2.97;;;2.15;;
37907;SDS011;23740;51.550;6.846;2023-07-24T01:36:32;4.03;;;2.13;;
37907;SDS011;23740;51.550;6.846;2023-07-24T01:39:00;4.93;;;1.95;;
37907;SDS011;23740;51.550;6.846;2023-07-24T01:41:29;4.13;;;3.25;;
37907;SDS011;23740;51.550;6.846;2023-07-24T01:44:01;3.60;;;1.95;;
37907;SDS011;23740;51.550;6.846;2023-07-24T01:46:29;3.45;;;2.08;;
37907;SDS011;23740;51.550;6.846;2023-07-24T01:48:57;3.67;;;2.28;;
37907;SDS011;23740;51.550;6.846;2023-07-24T01:51:25;2.88;;;2.00;;
37907;SDS011;23740;51.550;6.846;2023-07-24T01:53:53;3.88;;;2.15;;
37907;SDS011;23740;51.550;6.846;2023-07-24T01:56:21;2.40;;;2.00;;
37907;SDS011;23740;51.550;6.846;2023-07-24T01:58:48;3.47;;;1.98;;
37907;SDS011;23740;51.550;6.846;2023-07-24T02:01:17;3.75;;;2.38;;
37907;SDS011;23740;51.550;6.846;2023-07-24T02:03:45;4.72;;;2.22;;
37907;SDS011;23740;51.550;6.846;2023-07-24T02:06:13;4.00;;;2.42;;
37907;SDS011;23740;51.550;6.846;2023-07-24T02:08:42;2.13;;;1.67;;
37907;SDS011;23740;51.550;6.846;2023-07-24T02:11:15;2.35;;;1.63;;
37907;SDS011;23740;51.550;6.846;2023-07-24T02:13:43;4.18;;;2.13;;
37907;SDS011;23740;51.550;6.846;2023-07-24T02:16:10;3.53;;;2.03;;
37907;SDS011;23740;51.550;6.846;2023-07-24T02:18:43;3.45;;;2.30;;
37907;SDS011;23740;51.550;6.846;2023-07-24T02:21:11;4.15;;;2.15;;
37907;SDS011;23740;51.550;6.846;2023-07-24T02:23:39;5.43;;;1.85;;
37907;SDS011;23740;51.550;6.846;2023-07-24T02:26:06;3.88;;;1.95;;
37907;SDS011;23740;51.550;6.846;2023-07-24T02:28:36;3.42;;;2.30;;
37907;SDS011;23740;51.550;6.846;2023-07-24T02:31:04;3.88;;;1.83;;
37907;SDS011;23740;51.550;6.846;2023-07-24T02:33:32;4.60;;;2.20;;
37907;SDS011;23740;51.550;6.846;2023-07-24T02:36:01;4.80;;;2.25;;
37907;SDS011;23740;51.550;6.846;2023-07-24T02:38:28;4.20;;;1.92;;
37907;SDS011;23740;51.550;6.846;2023-07-24T02:40:56;3.88;;;2.30;;
37907;SDS011;23740;51.550;6.846;2023-07-24T02:43:24;3.70;;;2.42;;
37907;SDS011;23740;51.550;6.846;2023-07-24T02:45:52;3.47;;;2.08;;
37907;SDS011;23740;51.550;6.846;2023-07-24T02:48:20;3.60;;;2.03;;
37907;SDS011;23740;51.550;6.846;2023-07-24T02:50:48;4.55;;;2.35;;
37907;SDS011;23740;51.550;6.846;2023-07-24T02:53:17;2.92;;;2.22;;
37907;SDS011;23740;51.550;6.846;2023-07-24T02:55:44;2.95;;;2.10;;
37907;SDS011;23740;51.550;6.846;2023-07-24T02:58:12;3.22;;;2.00;;
37907;SDS011;23740;51.550;6.846;2023-07-24T03:00:41;4.75;;;2.45;;
37907;SDS011;23740;51.550;6.846;2023-07-24T03:03:09;4.70;;;2.38;;
37907;SDS011;23740;51.550;6.846;2023-07-24T03:05:37;4.00;;;2.05;;
37907;SDS011;23740;51.550;6.846;2023-07-24T03:08:05;4.78;;;2.30;;
37907;SDS011;23740;51.550;6.846;2023-07-24T03:10:34;4.28;;;2.90;;
37907;SDS011;23740;51.550;6.846;2023-07-24T03:13:01;3.25;;;2.20;;
37907;SDS011;23740;51.550;6.846;2023-07-24T03:15:29;7.60;;;2.15;;
37907;SDS011;23740;51.550;6.846;2023-07-24T03:17:57;4.47;;;1.98;;
37907;SDS011;23740;51.550;6.846;2023-07-24T03:20:25;4.93;;;2.30;;
37907;SDS011;23740;51.550;6.846;2023-07-24T03:22:53;4.20;;;2.63;;
37907;SDS011;23740;51.550;6.846;2023-07-24T03:25:20;2.95;;;2.20;;
37907;SDS011;23740;51.550;6.846;2023-07-24T03:27:50;4.55;;;2.25;;
37907;SDS011;23740;51.550;6.846;2023-07-24T03:30:17;4.15;;;2.65;;
37907;SDS011;23740;51.550;6.846;2023-07-24T03:32:45;4.22;;;2.95;;
37907;SDS011;23740;51.550;6.846;2023-07-24T03:35:13;4.18;;;2.17;;
37907;SDS011;23740;51.550;6.846;2023-07-24T03:37:41;4.40;;;2.33;;
37907;SDS011;23740;51.550;6.846;2023-07-24T03:40:09;3.60;;;2.42;;
37907;SDS011;23740;51.550;6.846;2023-07-24T03:42:37;3.83;;;2.45;;
37907;SDS011;23740;51.550;6.846;2023-07-24T03:45:07;6.00;;;2.63;;
37907;SDS011;23740;51.550;6.846;2023-07-24T03:47:35;3.85;;;2.50;;
37907;SDS011;23740;51.550;6.846;2023-07-24T03:50:05;5.90;;;2.97;;
37907;SDS011;23740;51.550;6.846;2023-07-24T03:52:33;4.47;;;2.55;;
37907;SDS011;23740;51.550;6.846;2023-07-24T03:55:01;4.47;;;2.92;;
37907;SDS011;23740;51.550;6.846;2023-07-24T03:57:29;4.82;;;2.70;;
37907;SDS011;23740;51.550;6.846;2023-07-24T03:59:57;3.92;;;2.30;;
37907;SDS011;23740;51.550;6.846;2023-07-24T04:02:26;4.78;;;2.97;;
37907;SDS011;23740;51.550;6.846;2023-07-24T04:04:54;5.05;;;2.97;;
37907;SDS011;23740;51.550;6.846;2023-07-24T04:07:22;5.97;;;2.90;;
37907;SDS011;23740;51.550;6.846;2023-07-24T04:09:49;4.68;;;2.47;;
37907;SDS011;23740;51.550;6.846;2023-07-24T04:12:17;4.65;;;2.47;;
37907;SDS011;23740;51.550;6.846;2023-07-24T04:14:45;4.35;;;2.42;;
37907;SDS011;23740;51.550;6.846;2023-07-24T04:17:15;4.50;;;2.50;;
37907;SDS011;23740;51.550;6.846;2023-07-24T04:19:44;4.13;;;2.90;;
37907;SDS011;23740;51.550;6.846;2023-07-24T04:22:11;4.38;;;2.90;;
37907;SDS011;23740;51.550;6.846;2023-07-24T04:24:39;5.13;;;2.97;;
37907;SDS011;23740;51.550;6.846;2023-07-24T04:27:07;5.88;;;3.13;;
37907;SDS011;23740;51.550;6.846;2023-07-24T04:29:34;4.75;;;2.90;;
37907;SDS011;23740;51.550;6.846;2023-07-24T04:32:02;5.57;;;2.58;;
37907;SDS011;23740;51.550;6.846;2023-07-24T04:34:31;5.03;;;2.85;;
37907;SDS011;23740;51.550;6.846;2023-07-24T04:37:01;5.43;;;2.45;;
37907;SDS011;23740;51.550;6.846;2023-07-24T04:39:28;7.18;;;3.10;;
37907;SDS011;23740;51.550;6.846;2023-07-24T04:41:56;4.50;;;3.30;;
37907;SDS011;23740;51.550;6.846;2023-07-24T04:44:24;4.97;;;3.03;;
37907;SDS011;23740;51.550;6.846;2023-07-24T04:46:52;5.28;;;3.15;;
37907;SDS011;23740;51.550;6.846;2023-07-24T04:49:21;5.15;;;2.90;;
37907;SDS011;23740;51.550;6.846;2023-07-24T04:51:50;7.22;;;2.80;;
37907;SDS011;23740;51.550;6.846;2023-07-24T04:54:19;4.78;;;3.00;;
37907;SDS011;23740;51.550;6.846;2023-07-24T04:56:47;6.60;;;2.88;;
37907;SDS011;23740;51.550;6.846;2023-07-24T04:59:15;4.10;;;2.53;;
37907;SDS011;23740;51.550;6.846;2023-07-24T05:01:42;6.32;;;3.20;;
37907;SDS011;23740;51.550;6.846;2023-07-24T05:04:10;5.00;;;3.13;;
37907;SDS011;23740;51.550;6.846;2023-07-24T05:06:38;5.35;;;2.88;;
37907;SDS011;23740;51.550;6.846;2023-07-24T05:09:06;4.68;;;2.67;;
37907;SDS011;23740;51.550;6.846;2023-07-24T05:11:35;5.18;;;2.20;;
37907;SDS011;23740;51.550;6.846;2023-07-24T05:14:03;5.43;;;3.03;;
37907;SDS011;23740;51.550;6.846;2023-07-24T05:16:30;6.70;;;3.20;;
37907;SDS011;23740;51.550;6.846;2023-07-24T05:18:59;4.20;;;2.50;;
37907;SDS011;23740;51.550;6.846;2023-07-24T05:21:26;4.65;;;2.08;;
37907;SDS011;23740;51.550;6.846;2023-07-24T05:23:54;6.53;;;2.80;;
37907;SDS011;23740;51.550;6.846;2023-07-24T05:26:22;3.63;;;2.33;;
37907;SDS011;23740;51.550;6.846;2023-07-24T05:28:51;5.40;;;2.85;;
37907;SDS011;23740;51.550;6.846;2023-07-24T05:31:19;5.20;;;2.97;;
37907;SDS011;23740;51.550;6.846;2023-07-24T05:33:47;4.95;;;2.75;;
37907;SDS011;23740;51.550;6.846;2023-07-24T05:36:14;3.03;;;2.17;;
37907;SDS011;23740;51.550;6.846;2023-07-24T05:38:42;5.65;;;3.03;;
37907;SDS011;23740;51.550;6.846;2023-07-24T05:41:10;6.22;;;2.78;;
37907;SDS011;23740;51.550;6.846;2023-07-24T05:43:37;4.80;;;2.55;;
37907;SDS011;23740;51.550;6.846;2023-07-24T05:46:06;3.58;;;3.00;;
37907;SDS011;23740;51.550;6.846;2023-07-24T05:48:34;4.80;;;3.03;;
37907;SDS011;23740;51.550;6.846;2023-07-24T05:51:02;4.65;;;2.28;;
37907;SDS011;23740;51.550;6.846;2023-07-24T05:53:30;5.82;;;2.80;;
37907;SDS011;23740;51.550;6.846;2023-07-24T05:55:58;3.75;;;2.65;;
37907;SDS011;23740;51.550;6.846;2023-07-24T05:58:27;4.40;;;3.13;;
37907;SDS011;23740;51.550;6.846;2023-07-24T06:00:55;4.22;;;2.83;;
37907;SDS011;23740;51.550;6.846;2023-07-24T06:03:24;4.28;;;2.90;;
37907;SDS011;23740;51.550;6.846;2023-07-24T06:05:52;5.68;;;3.00;;
37907;SDS011;23740;51.550;6.846;2023-07-24T06:08:20;5.95;;;3.80;;
37907;SDS011;23740;51.550;6.846;2023-07-24T06:10:48;4.88;;;3.20;;
37907;SDS011;23740;51.550;6.846;2023-07-24T06:13:16;4.80;;;2.65;;
37907;SDS011;23740;51.550;6.846;2023-07-24T06:15:44;5.20;;;3.35;;
37907;SDS011;23740;51.550;6.846;2023-07-24T06:18:14;5.10;;;3.17;;
37907;SDS011;23740;51.550;6.846;2023-07-24T06:20:43;4.22;;;2.40;;
37907;SDS011;23740;51.550;6.846;2023-07-24T06:23:11;5.63;;;2.97;;
37907;SDS011;23740;51.550;6.846;2023-07-24T06:25:38;5.88;;;2.95;;
37907;SDS011;23740;51.550;6.846;2023-07-24T06:28:08;6.05;;;2.97;;
37907;SDS011;23740;51.550;6.846;2023-07-24T06:30:36;5.72;;;2.70;;
37907;SDS011;23740;51.550;6.846;2023-07-24T06:33:05;5.35;;;3.03;;
37907;SDS011;23740;51.550;6.846;2023-07-24T06:35:33;4.78;;;2.72;;
37907;SDS011;23740;51.550;6.846;2023-07-24T06:38:02;5.07;;;3.00;;
37907;SDS011;23740;51.550;6.846;2023-07-24T06:40:30;5.97;;;3.28;;
37907;SDS011;23740;51.550;6.846;2023-07-24T06:42:58;5.55;;;3.55;;
37907;SDS011;23740;51.550;6.846;2023-07-24T06:45:26;7.18;;;3.28;;
37907;SDS011;23740;51.550;6.846;2023-07-24T06:47:54;7.95;;;3.65;;
37907;SDS011;23740;51.550;6.846;2023-07-24T06:50:22;5.78;;;2.97;;
37907;SDS011;23740;51.550;6.846;2023-07-24T06:52:50;8.60;;;3.85;;
37907;SDS011;23740;51.550;6.846;2023-07-24T06:55:21;9.48;;;4.07;;
37907;SDS011;23740;51.550;6.846;2023-07-24T06:57:49;7.65;;;2.42;;
37907;SDS011;23740;51.550;6.846;2023-07-24T07:00:17;2.42;;;1.77;;
37907;SDS011;23740;51.550;6.846;2023-07-24T07:02:45;2.20;;;1.42;;
37907;SDS011;23740;51.550;6.846;2023-07-24T07:05:13;2.53;;;1.60;;
37907;SDS011;23740;51.550;6.846;2023-07-24T07:07:41;2.15;;;1.20;;
37907;SDS011;23740;51.550;6.846;2023-07-24T07:10:08;2.50;;;1.67;;
37907;SDS011;23740;51.550;6.846;2023-07-24T07:12:38;1.10;;;0.45;;
37907;SDS011;23740;51.550;6.846;2023-07-24T07:15:06;1.73;;;1.25;;
37907;SDS011;23740;51.550;6.846;2023-07-24T07:17:35;1.27;;;0.65;;
37907;SDS011;23740;51.550;6.846;2023-07-24T07:20:03;1.02;;;0.52;;
37907;SDS011;23740;51.550;6.846;2023-07-24T07:22:31;0.93;;;0.65;;
37907;SDS011;23740;51.550;6.846;2023-07-24T07:24:59;0.85;;;0.82;;
37907;SDS011;23740;51.550;6.846;2023-07-24T07:27:27;1.35;;;0.73;;
37907;SDS011;23740;51.550;6.846;2023-07-24T07:29:56;0.98;;;0.68;;
37907;SDS011;23740;51.550;6.846;2023-07-24T07:32:24;1.10;;;0.88;;
37907;SDS011;23740;51.550;6.846;2023-07-24T07:34:55;1.55;;;0.93;;
37907;SDS011;23740;51.550;6.846;2023-07-24T07:37:22;1.20;;;0.85;;
37907;SDS011;23740;51.550;6.846;2023-07-24T07:39:52;1.38;;;1.23;;
37907;SDS011;23740;51.550;6.846;2023-07-24T07:42:20;1.17;;;1.00;;
37907;SDS011;23740;51.550;6.846;2023-07-24T07:44:47;1.50;;;1.13;;
37907;SDS011;23740;51.550;6.846;2023-07-24T07:47:17;1.63;;;1.08;;
37907;SDS011;23740;51.550;6.846;2023-07-24T07:49:45;1.20;;;1.00;;
37907;SDS011;23740;51.550;6.846;2023-07-24T07:52:16;1.45;;;1.35;;
37907;SDS011;23740;51.550;6.846;2023-07-24T07:54:45;1.38;;;1.10;;
37907;SDS011;23740;51.550;6.846;2023-07-24T07:57:15;1.20;;;1.10;;
37907;SDS011;23740;51.550;6.846;2023-07-24T07:59:43;1.73;;;1.17;;
37907;SDS011;23740;51.550;6.846;2023-07-24T08:02:10;2.13;;;1.33;;
37907;SDS011;23740;51.550;6.846;2023-07-24T08:04:39;1.95;;;1.33;;
37907;SDS011;23740;51.550;6.846;2023-07-24T08:07:07;2.00;;;1.35;;
37907;SDS011;23740;51.550;6.846;2023-07-24T08:09:35;1.70;;;1.17;;
37907;SDS011;23740;51.550;6.846;2023-07-24T08:12:04;1.58;;;1.42;;
37907;SDS011;23740;51.550;6.846;2023-07-24T08:14:34;1.73;;;1.27;;
37907;SDS011;23740;51.550;6.846;2023-07-24T08:17:02;1.95;;;1.45;;
37907;SDS011;23740;51.550;6.846;2023-07-24T08:19:30;1.50;;;1.17;;
37907;SDS011;23740;51.550;6.846;2023-07-24T08:22:00;4.05;;;1.40;;
37907;SDS011;23740;51.550;6.846;2023-07-24T08:24:28;1.17;;;1.02;;
37907;SDS011;23740;51.550;6.846;2023-07-24T08:26:56;1.40;;;1.30;;
37907;SDS011;23740;51.550;6.846;2023-07-24T08:29:27;1.40;;;1.00;;
37907;SDS011;23740;51.550;6.846;2023-07-24T08:31:54;2.50;;;2.08;;
37907;SDS011;23740;51.550;6.846;2023-07-24T08:34:22;3.45;;;2.35;;
37907;SDS011;23740;51.550;6.846;2023-07-24T08:36:50;4.40;;;2.80;;
37907;SDS011;23740;51.550;6.846;2023-07-24T08:39:19;3.40;;;2.70;;
37907;SDS011;23740;51.550;6.846;2023-07-24T08:41:47;4.68;;;3.35;;
37907;SDS011;23740;51.550;6.846;2023-07-24T08:44:15;5.18;;;2.85;;
37907;SDS011;23740;51.550;6.846;2023-07-24T08:46:43;3.00;;;2.13;;
37907;SDS011;23740;51.550;6.846;2023-07-24T08:49:13;1.90;;;1.70;;
37907;SDS011;23740;51.550;6.846;2023-07-24T08:51:41;1.65;;;1.50;;
37907;SDS011;23740;51.550;6.846;2023-07-24T08:54:09;1.38;;;1.27;;
37907;SDS011;23740;51.550;6.846;2023-07-24T08:56:40;1.65;;;1.55;;
37907;SDS011;23740;51.550;6.846;2023-07-24T08:59:13;2.08;;;0.98;;
37907;SDS011;23740;51.550;6.846;2023-07-24T09:01:41;1.63;;;1.52;;
37907;SDS011;23740;51.550;6.846;2023-07-24T09:04:09;1.67;;;1.58;;
37907;SDS011;23740;51.550;6.846;2023-07-24T09:06:37;1.42;;;1.33;;
37907;SDS011;23740;51.550;6.846;2023-07-24T09:09:11;1.45;;;1.35;;
37907;SDS011;23740;51.550;6.846;2023-07-24T09:11:48;1.55;;;1.17;;
37907;SDS011;23740;51.550;6.846;2023-07-24T09:14:20;1.10;;;0.98;;
37907;SDS011;23740;51.550;6.846;2023-07-24T09:16:49;1.30;;;1.20;;
37907;SDS011;23740;51.550;6.846;2023-07-24T09:19:19;1.27;;;1.17;;
37907;SDS011;23740;51.550;6.846;2023-07-24T09:21:52;1.17;;;1.08;;
37907;SDS011;23740;51.550;6.846;2023-07-24T09:24:19;1.83;;;1.70;;
37907;SDS011;23740;51.550;6.846;2023-07-24T09:26:49;1.40;;;1.30;;
37907;SDS011;23740;51.550;6.846;2023-07-24T09:29:29;2.13;;;1.48;;
37907;SDS011;23740;51.550;6.846;2023-07-24T09:31:58;1.90;;;1.27;;
37907;SDS011;23740;51.550;6.846;2023-07-24T09:34:26;1.15;;;1.05;;
37907;SDS011;23740;51.550;6.846;2023-07-24T09:36:53;1.33;;;1.00;;
37907;SDS011;23740;51.550;6.846;2023-07-24T09:39:24;1.52;;;1.42;;
37907;SDS011;23740;51.550;6.846;2023-07-24T09:42:03;1.52;;;1.42;;
37907;SDS011;23740;51.550;6.846;2023-07-24T09:44:31;2.35;;;1.33;;
37907;SDS011;23740;51.550;6.846;2023-07-24T09:46:59;1.70;;;1.40;;
37907;SDS011;23740;51.550;6.846;2023-07-24T09:49:48;1.40;;;1.17;;
37907;SDS011;23740;51.550;6.846;2023-07-24T09:52:15;1.38;;;1.23;;
37907;SDS011;23740;51.550;6.846;2023-07-24T09:54:47;1.75;;;1.40;;
37907;SDS011;23740;51.550;6.846;2023-07-24T09:57:21;1.63;;;1.30;;
37907;SDS011;23740;51.550;6.846;2023-07-24T09:59:50;1.48;;;1.38;;
37907;SDS011;23740;51.550;6.846;2023-07-24T10:02:19;1.48;;;1.00;;
37907;SDS011;23740;51.550;6.846;2023-07-24T10:04:47;2.08;;;1.08;;
37907;SDS011;23740;51.550;6.846;2023-07-24T10:07:15;1.55;;;1.00;;
37907;SDS011;23740;51.550;6.846;2023-07-24T10:09:43;3.90;;;1.08;;
37907;SDS011;23740;51.550;6.846;2023-07-24T10:12:11;2.05;;;1.00;;
37907;SDS011;23740;51.550;6.846;2023-07-24T10:14:40;1.42;;;1.10;;
37907;SDS011;23740;51.550;6.846;2023-07-24T10:17:08;2.90;;;1.42;;
37907;SDS011;23740;51.550;6.846;2023-07-24T10:19:36;2.10;;;1.52;;
37907;SDS011;23740;51.550;6.846;2023-07-24T10:22:05;3.88;;;1.83;;
37907;SDS011;23740;51.550;6.846;2023-07-24T10:24:33;2.10;;;1.33;;
37907;SDS011;23740;51.550;6.846;2023-07-24T10:27:08;2.55;;;1.40;;
37907;SDS011;23740;51.550;6.846;2023-07-24T10:29:35;2.00;;;1.20;;
37907;SDS011;23740;51.550;6.846;2023-07-24T10:32:15;2.38;;;1.20;;
37907;SDS011;23740;51.550;6.846;2023-07-24T10:34:44;2.65;;;1.60;;
37907;SDS011;23740;51.550;6.846;2023-07-24T10:37:12;1.13;;;1.02;;
37907;SDS011;23740;51.550;6.846;2023-07-24T10:39:40;1.90;;;1.02;;
37907;SDS011;23740;51.550;6.846;2023-07-24T10:42:09;1.88;;;1.10;;
37907;SDS011;23740;51.550;6.846;2023-07-24T10:44:37;1.60;;;1.50;;
37907;SDS011;23740;51.550;6.846;2023-07-24T10:47:07;1.92;;;1.25;;
37907;SDS011;23740;51.550;6.846;2023-07-24T10:49:35;2.20;;;2.00;;
37907;SDS011;23740;51.550;6.846;2023-07-24T10:52:03;1.80;;;1.10;;
37907;SDS011;23740;51.550;6.846;2023-07-24T10:54:31;2.38;;;1.85;;
37907;SDS011;23740;51.550;6.846;2023-07-24T10:56:59;1.63;;;1.48;;
37907;SDS011;23740;51.550;6.846;2023-07-24T10:59:37;3.30;;;1.95;;
37907;SDS011;23740;51.550;6.846;2023-07-24T11:02:05;1.60;;;1.42;;
37907;SDS011;23740;51.550;6.846;2023-07-24T11:04:36;1.95;;;1.73;;
37907;SDS011;23740;51.550;6.846;2023-07-24T11:07:04;1.90;;;1.52;;
37907;SDS011;23740;51.550;6.846;2023-07-24T11:09:35;2.15;;;1.95;;
37907;SDS011;23740;51.550;6.846;2023-07-24T11:12:13;3.30;;;2.05;;
37907;SDS011;23740;51.550;6.846;2023-07-24T11:17:34;3.30;;;1.88;;
37907;SDS011;23740;51.550;6.846;2023-07-24T11:20:07;2.83;;;2.45;;
37907;SDS011;23740;51.550;6.846;2023-07-24T11:22:40;4.70;;;3.03;;
37907;SDS011;23740;51.550;6.846;2023-07-24T11:25:09;3.67;;;2.10;;
37907;SDS011;23740;51.550;6.846;2023-07-24T11:27:38;4.60;;;2.47;;
37907;SDS011;23740;51.550;6.846;2023-07-24T11:30:08;5.97;;;2.60;;
37907;SDS011;23740;51.550;6.846;2023-07-24T11:32:38;3.05;;;2.40;;
37907;SDS011;23740;51.550;6.846;2023-07-24T11:35:07;3.75;;;2.22;;
37907;SDS011;23740;51.550;6.846;2023-07-24T11:37:36;3.22;;;2.15;;
37907;SDS011;23740;51.550;6.846;2023-07-24T11:40:04;3.15;;;2.03;;
37907;SDS011;23740;51.550;6.846;2023-07-24T11:45:05;4.07;;;2.30;;
37907;SDS011;23740;51.550;6.846;2023-07-24T11:47:43;3.33;;;2.30;;
37907;SDS011;23740;51.550;6.846;2023-07-24T11:50:12;4.07;;;2.13;;
37907;SDS011;23740;51.550;6.846;2023-07-24T11:52:40;4.22;;;2.50;;
37907;SDS011;23740;51.550;6.846;2023-07-24T11:55:10;3.20;;;2.28;;
37907;SDS011;23740;51.550;6.846;2023-07-24T11:57:38;4.18;;;2.38;;
37907;SDS011;23740;51.550;6.846;2023-07-24T12:00:17;4.57;;;2.67;;
37907;SDS011;23740;51.550;6.846;2023-07-24T12:02:47;5.50;;;2.95;;
37907;SDS011;23740;51.550;6.846;2023-07-24T12:05:15;4.20;;;3.00;;
37907;SDS011;23740;51.550;6.846;2023-07-24T12:07:43;6.80;;;3.45;;
37907;SDS011;23740;51.550;6.846;2023-07-24T12:10:11;4.28;;;3.20;;
37907;SDS011;23740;51.550;6.846;2023-07-24T12:12:41;17.33;;;3.78;;
37907;SDS011;23740;51.550;6.846;2023-07-24T12:15:13;15.18;;;3.63;;
37907;SDS011;23740;51.550;6.846;2023-07-24T12:17:41;6.13;;;2.72;;
37907;SDS011;23740;51.550;6.846;2023-07-24T12:20:10;2.92;;;2.60;;
37907;SDS011;23740;51.550;6.846;2023-07-24T12:22:38;3.80;;;2.92;;
37907;SDS011;23740;51.550;6.846;2023-07-24T12:25:06;3.33;;;2.20;;
37907;SDS011;23740;51.550;6.846;2023-07-24T12:27:35;3.85;;;2.20;;
37907;SDS011;23740;51.550;6.846;2023-07-24T12:30:04;4.13;;;2.38;;
37907;SDS011;23740;51.550;6.846;2023-07-24T12:32:33;3.47;;;2.35;;
37907;SDS011;23740;51.550;6.846;2023-07-24T12:35:01;3.80;;;2.45;;
37907;SDS011;23740;51.550;6.846;2023-07-24T12:37:30;3.78;;;2.70;;
37907;SDS011;23740;51.550;6.846;2023-07-24T12:39:58;3.58;;;3.10;;
37907;SDS011;23740;51.550;6.846;2023-07-24T12:42:26;3.67;;;2.97;;
37907;SDS011;23740;51.550;6.846;2023-07-24T12:44:54;3.58;;;3.17;;
37907;SDS011;23740;51.550;6.846;2023-07-24T12:47:24;2.55;;;2.35;;
37907;SDS011;23740;51.550;6.846;2023-07-24T12:49:52;2.58;;;2.28;;
37907;SDS011;23740;51.550;6.846;2023-07-24T12:52:21;2.90;;;2.20;;
37907;SDS011;23740;51.550;6.846;2023-07-24T12:54:51;2.58;;;1.95;;
37907;SDS011;23740;51.550;6.846;2023-07-24T12:57:27;5.57;;;2.45;;
37907;SDS011;23740;51.550;6.846;2023-07-24T12:59:55;2.22;;;2.03;;
37907;SDS011;23740;51.550;6.846;2023-07-24T13:02:23;2.90;;;2.60;;
37907;SDS011;23740;51.550;6.846;2023-07-24T13:04:51;2.55;;;2.20;;
37907;SDS011;23740;51.550;6.846;2023-07-24T13:07:19;2.85;;;2.30;;
37907;SDS011;23740;51.550;6.846;2023-07-24T13:09:47;2.88;;;2.22;;
37907;SDS011;23740;51.550;6.846;2023-07-24T13:12:16;2.70;;;2.00;;
37907;SDS011;23740;51.550;6.846;2023-07-24T13:14:44;2.83;;;2.53;;
37907;SDS011;23740;51.550;6.846;2023-07-24T13:17:12;2.95;;;2.15;;
37907;SDS011;23740;51.550;6.846;2023-07-24T13:19:40;2.38;;;1.98;;
37907;SDS011;23740;51.550;6.846;2023-07-24T13:22:07;1.70;;;1.58;;
37907;SDS011;23740;51.550;6.846;2023-07-24T13:24:35;2.00;;;1.70;;
37907;SDS011;23740;51.550;6.846;2023-07-24T13:27:03;2.95;;;1.85;;
37907;SDS011;23740;51.550;6.846;2023-07-24T13:29:32;1.92;;;1.42;;
37907;SDS011;23740;51.550;6.846;2023-07-24T13:32:00;2.00;;;1.80;;
37907;SDS011;23740;51.550;6.846;2023-07-24T13:34:28;1.65;;;1.55;;
37907;SDS011;23740;51.550;6.846;2023-07-24T13:36:56;2.10;;;1.75;;
37907;SDS011;23740;51.550;6.846;2023-07-24T13:39:23;2.25;;;1.67;;
37907;SDS011;23740;51.550;6.846;2023-07-24T13:41:53;1.70;;;1.60;;
37907;SDS011;23740;51.550;6.846;2023-07-24T13:44:22;2.28;;;2.08;;
37907;SDS011;23740;51.550;6.846;2023-07-24T13:46:51;1.85;;;1.48;;
37907;SDS011;23740;51.550;6.846;2023-07-24T13:49:21;1.75;;;1.63;;
37907;SDS011;23740;51.550;6.846;2023-07-24T13:51:49;1.20;;;1.10;;
37907;SDS011;23740;51.550;6.846;2023-07-24T13:54:17;2.00;;;1.60;;
37907;SDS011;23740;51.550;6.846;2023-07-24T13:56:45;2.78;;;1.42;;
37907;SDS011;23740;51.550;6.846;2023-07-24T13:59:16;1.95;;;1.52;;
37907;SDS011;23740;51.550;6.846;2023-07-24T14:01:43;2.30;;;2.10;;
37907;SDS011;23740;51.550;6.846;2023-07-24T14:04:13;2.95;;;2.10;;
37907;SDS011;23740;51.550;6.846;2023-07-24T14:06:41;2.25;;;2.15;;
37907;SDS011;23740;51.550;6.846;2023-07-24T14:09:10;1.95;;;1.77;;
37907;SDS011;23740;51.550;6.846;2023-07-24T14:11:39;2.53;;;1.92;;
37907;SDS011;23740;51.550;6.846;2023-07-24T14:14:06;2.38;;;1.67;;
37907;SDS011;23740;51.550;6.846;2023-07-24T14:16:35;2.22;;;1.67;;
37907;SDS011;23740;51.550;6.846;2023-07-24T14:19:06;2.17;;;1.63;;
37907;SDS011;23740;51.550;6.846;2023-07-24T14:21:35;1.85;;;1.35;;
37907;SDS011;23740;51.550;6.846;2023-07-24T14:24:05;1.60;;;1.50;;
37907;SDS011;23740;51.550;6.846;2023-07-24T14:26:33;1.98;;;1.50;;
37907;SDS011;23740;51.550;6.846;2023-07-24T14:29:03;1.67;;;1.45;;
37907;SDS011;23740;51.550;6.846;2023-07-24T14:31:31;2.45;;;1.75;;
37907;SDS011;23740;51.550;6.846;2023-07-24T14:33:59;1.58;;;1.30;;
37907;SDS011;23740;51.550;6.846;2023-07-24T14:36:27;2.08;;;1.75;;
37907;SDS011;23740;51.550;6.846;2023-07-24T14:39:01;2.50;;;1.70;;
37907;SDS011;23740;51.550;6.846;2023-07-24T14:41:29;1.50;;;1.38;;
37907;SDS011;23740;51.550;6.846;2023-07-24T14:43:58;2.10;;;1.85;;
37907;SDS011;23740;51.550;6.846;2023-07-24T14:46:25;2.25;;;2.05;;
37907;SDS011;23740;51.550;6.846;2023-07-24T14:48:53;2.40;;;2.20;;
37907;SDS011;23740;51.550;6.846;2023-07-24T14:51:21;3.72;;;3.42;;
37907;SDS011;23740;51.550;6.846;2023-07-24T14:53:49;2.03;;;1.77;;
37907;SDS011;23740;51.550;6.846;2023-07-24T14:56:24;2.10;;;1.67;;
37907;SDS011;23740;51.550;6.846;2023-07-24T14:59:05;2.00;;;1.77;;
37907;SDS011;23740;51.550;6.846;2023-07-24T15:01:33;2.17;;;1.58;;
37907;SDS011;23740;51.550;6.846;2023-07-24T15:04:01;2.03;;;1.80;;
37907;SDS011;23740;51.550;6.846;2023-07-24T15:06:29;2.03;;;1.80;;